createdAt,value
2018-12-10T00:00:24.150Z,997.24
2018-12-10T00:01:24.165Z,997.4
2018-12-10T00:02:24.185Z,997.31
2018-12-10T00:03:24.200Z,997.3
2018-12-10T00:04:24.215Z,997.32
2018-12-10T00:05:24.231Z,997.32
2018-12-10T00:06:24.247Z,997.25
2018-12-10T00:07:24.263Z,997.35
2018-12-10T00:08:24.279Z,997.42
2018-12-10T00:09:24.297Z,997.33
2018-12-10T00:10:24.312Z,997.34
2018-12-10T00:11:24.333Z,997.32
2018-12-10T00:12:24.344Z,997.38
2018-12-10T00:14:24.376Z,997.37
2018-12-10T00:15:24.396Z,997.4
2018-12-10T00:16:24.408Z,997.44
2018-12-10T00:17:24.425Z,997.38
2018-12-10T00:18:24.447Z,997.45
2018-12-10T00:19:24.456Z,997.5
2018-12-10T00:20:24.473Z,997.55
2018-12-10T00:21:24.487Z,997.59
2018-12-10T00:22:24.504Z,997.55
2018-12-10T00:23:24.520Z,997.65
2018-12-10T00:24:24.537Z,997.67
2018-12-10T00:25:24.551Z,997.64
2018-12-10T00:26:24.568Z,997.73
2018-12-10T00:27:24.587Z,997.71
2018-12-10T00:28:24.601Z,997.62
2018-12-10T00:29:24.617Z,997.7
2018-12-10T00:30:24.631Z,997.76
2018-12-10T00:31:24.647Z,997.67
2018-12-10T00:32:24.663Z,997.76
2018-12-10T00:33:24.681Z,997.82
2018-12-10T00:34:24.697Z,997.72
2018-12-10T00:35:24.711Z,997.8
2018-12-10T00:36:24.777Z,997.77
2018-12-10T00:37:24.742Z,997.84
2018-12-10T00:38:24.759Z,997.81
2018-12-10T00:39:24.776Z,997.87
2018-12-10T00:40:24.792Z,997.87
2018-12-10T00:41:24.856Z,997.92
2018-12-10T00:42:24.826Z,997.94
2018-12-10T00:43:24.840Z,997.95
2018-12-10T00:44:24.857Z,998.11
2018-12-10T00:46:24.887Z,998.1
2018-12-10T00:47:24.903Z,998.09
2018-12-10T00:48:24.917Z,998.06
2018-12-10T00:49:24.935Z,998.09
2018-12-10T00:50:24.953Z,998.11
2018-12-10T00:51:24.967Z,998.14
2018-12-10T00:52:24.981Z,998.16
2018-12-10T00:53:25.048Z,998.16
2018-12-10T00:54:25.013Z,998.22
2018-12-10T00:55:25.028Z,998.23
2018-12-10T00:56:25.044Z,998.22
2018-12-10T00:57:25.061Z,998.27
2018-12-10T00:58:25.078Z,998.23
2018-12-10T00:59:25.091Z,998.31
2018-12-10T01:00:25.108Z,998.25
2018-12-10T01:02:25.140Z,998.41
2018-12-10T01:03:25.155Z,998.27
2018-12-10T01:04:25.171Z,998.33
2018-12-10T01:05:25.189Z,998.3
2018-12-10T01:06:25.208Z,998.38
2018-12-10T01:07:25.220Z,998.43
2018-12-10T01:08:25.236Z,998.45
2018-12-10T01:09:25.265Z,998.45
2018-12-10T01:10:25.267Z,998.43
2018-12-10T01:11:25.282Z,998.53
2018-12-10T01:12:25.299Z,998.48
2018-12-10T01:13:25.314Z,998.54
2018-12-10T01:14:25.354Z,998.51
2018-12-10T01:15:25.351Z,998.64
2018-12-10T01:16:25.364Z,998.37
2018-12-10T01:18:25.394Z,998.65
2018-12-10T01:19:25.461Z,998.56
2018-12-10T01:20:25.426Z,998.6
2018-12-10T01:21:25.442Z,998.68
2018-12-10T01:22:25.457Z,998.68
2018-12-10T01:23:25.476Z,998.68
2018-12-10T01:24:25.489Z,998.64
2018-12-10T01:25:25.504Z,998.78
2018-12-10T01:26:25.525Z,998.77
2018-12-10T01:27:25.537Z,998.75
2018-12-10T01:28:25.552Z,998.8
2018-12-10T01:29:25.567Z,998.67
2018-12-10T01:30:25.584Z,998.78
2018-12-10T01:31:25.599Z,998.81
2018-12-10T01:32:25.617Z,998.83
2018-12-10T01:34:25.647Z,998.88
2018-12-10T01:35:25.713Z,998.84
2018-12-10T01:36:25.679Z,998.9
2018-12-10T01:37:25.695Z,998.92
2018-12-10T01:38:25.709Z,998.94
2018-12-10T01:39:25.726Z,998.92
2018-12-10T01:40:25.742Z,998.91
2018-12-10T01:41:25.758Z,998.95
2018-12-10T01:42:25.773Z,998.87
2018-12-10T01:43:25.789Z,998.93
2018-12-10T01:44:25.804Z,999.06
2018-12-10T01:45:25.821Z,999.05
2018-12-10T01:46:25.839Z,998.89
2018-12-10T01:47:25.852Z,998.92
2018-12-10T01:49:25.889Z,999.1
2018-12-10T01:50:25.906Z,998.96
2018-12-10T01:51:25.916Z,999.09
2018-12-10T01:52:25.933Z,999.16
2018-12-10T01:53:25.947Z,999.11
2018-12-10T01:54:25.962Z,999.15
2018-12-10T01:55:25.978Z,999.12
2018-12-10T01:56:25.994Z,999.09
2018-12-10T01:57:26.010Z,999.12
2018-12-10T01:58:26.026Z,999.23
2018-12-10T01:59:26.142Z,999.18
2018-12-10T02:00:26.059Z,999.23
2018-12-10T02:01:26.074Z,999.19
2018-12-10T02:02:26.088Z,999.26
2018-12-10T02:03:26.150Z,999.2
2018-12-10T02:04:26.120Z,999.18
2018-12-10T02:05:26.186Z,999.17
2018-12-10T02:06:26.152Z,999.25
2018-12-10T02:07:26.168Z,999.33
2018-12-10T02:08:26.182Z,999.23
2018-12-10T02:09:26.197Z,999.46
2018-12-10T02:10:26.214Z,999.33
2018-12-10T02:11:26.231Z,999.32
2018-12-10T02:12:26.244Z,999.47
2018-12-10T02:13:26.260Z,999.46
2018-12-10T02:14:26.278Z,999.48
2018-12-10T02:15:26.292Z,999.44
2018-12-10T02:16:26.308Z,999.41
2018-12-10T02:17:26.324Z,999.41
2018-12-10T02:18:26.339Z,999.48
2018-12-10T02:19:26.353Z,999.44
2018-12-10T02:21:26.386Z,999.59
2018-12-10T02:22:26.450Z,999.59
2018-12-10T02:23:26.466Z,999.44
2018-12-10T02:24:26.433Z,999.52
2018-12-10T02:25:26.448Z,999.51
2018-12-10T02:26:26.463Z,999.42
2018-12-10T02:27:26.478Z,999.51
2018-12-10T02:28:26.494Z,999.54
2018-12-10T02:29:26.512Z,999.53
2018-12-10T02:30:26.526Z,999.56
2018-12-10T02:31:26.543Z,999.51
2018-12-10T02:32:26.558Z,999.5
2018-12-10T02:33:26.573Z,999.5
2018-12-10T02:34:26.588Z,999.57
2018-12-10T02:35:26.603Z,999.51
2018-12-10T02:37:26.636Z,999.69
2018-12-10T02:38:26.651Z,999.57
2018-12-10T02:39:26.665Z,999.59
2018-12-10T02:40:26.685Z,999.6
2018-12-10T02:41:26.696Z,999.63
2018-12-10T02:42:26.714Z,999.65
2018-12-10T02:43:26.729Z,999.59
2018-12-10T02:44:26.745Z,999.62
2018-12-10T02:45:26.760Z,999.66
2018-12-10T02:46:26.775Z,999.63
2018-12-10T02:47:26.845Z,999.73
2018-12-10T02:48:26.809Z,999.78
2018-12-10T02:49:26.872Z,999.72
2018-12-10T02:50:26.840Z,999.69
2018-12-10T02:51:26.854Z,999.7
2018-12-10T02:53:26.885Z,999.75
2018-12-10T02:54:26.902Z,999.74
2018-12-10T02:55:26.919Z,999.76
2018-12-10T02:56:26.936Z,999.78
2018-12-10T02:57:26.947Z,999.74
2018-12-10T02:58:26.964Z,999.79
2018-12-10T02:59:26.983Z,999.82
2018-12-10T03:00:26.996Z,999.8
2018-12-10T03:01:27.015Z,999.75
2018-12-10T03:02:27.028Z,999.78
2018-12-10T03:03:27.041Z,999.81
2018-12-10T03:04:27.058Z,999.8
2018-12-10T03:05:27.074Z,999.9
2018-12-10T03:06:27.090Z,999.92
2018-12-10T03:07:27.109Z,999.9
2018-12-10T03:09:27.138Z,999.95
2018-12-10T03:10:27.153Z,999.97
2018-12-10T03:11:27.167Z,1000.01
2018-12-10T03:12:27.182Z,999.91
2018-12-10T03:13:27.201Z,999.98
2018-12-10T03:14:27.215Z,1000.01
2018-12-10T03:15:27.241Z,999.91
2018-12-10T03:16:27.247Z,999.98
2018-12-10T03:17:27.262Z,999.93
2018-12-10T03:18:27.334Z,999.93
2018-12-10T03:19:27.306Z,1000.03
2018-12-10T03:20:27.308Z,1000.01
2018-12-10T03:21:27.327Z,1000.06
2018-12-10T03:22:27.340Z,1000.1
2018-12-10T03:24:27.373Z,1000.12
2018-12-10T03:25:27.387Z,1000.15
2018-12-10T03:26:27.406Z,1000.17
2018-12-10T03:27:27.419Z,1000.17
2018-12-10T03:28:27.436Z,1000.29
2018-12-10T03:29:27.452Z,1000.32
2018-12-10T03:30:27.470Z,1000.25
2018-12-10T03:31:27.483Z,1000.24
2018-12-10T03:32:27.498Z,1000.33
2018-12-10T03:33:27.515Z,1000.31
2018-12-10T03:34:27.528Z,1000.39
2018-12-10T03:35:27.644Z,1000.3
2018-12-10T03:36:27.558Z,1000.28
2018-12-10T03:37:27.577Z,1000.23
2018-12-10T03:38:27.591Z,1000.35
2018-12-10T03:39:27.606Z,1000.32
2018-12-10T03:40:27.622Z,1000.32
2018-12-10T03:41:27.638Z,1000.32
2018-12-10T03:42:27.655Z,1000.36
2018-12-10T03:43:27.667Z,1000.3
2018-12-10T03:44:27.694Z,1000.41
2018-12-10T03:45:27.701Z,1000.39
2018-12-10T03:46:27.714Z,1000.43
2018-12-10T03:47:27.738Z,1000.4
2018-12-10T03:48:27.746Z,1000.32
2018-12-10T03:49:27.763Z,1000.46
2018-12-10T03:50:27.777Z,1000.44
2018-12-10T03:51:27.792Z,1000.53
2018-12-10T03:52:27.809Z,1000.53
2018-12-10T03:53:27.825Z,1000.52
2018-12-10T03:54:27.840Z,1000.45
2018-12-10T03:56:27.874Z,1000.5
2018-12-10T03:57:27.936Z,1000.51
2018-12-10T03:58:27.902Z,1000.6
2018-12-10T03:59:27.918Z,1000.55
2018-12-10T04:00:27.934Z,1000.58
2018-12-10T04:01:27.950Z,1000.63
2018-12-10T04:02:27.965Z,1000.56
2018-12-10T04:03:27.981Z,1000.62
2018-12-10T04:04:27.995Z,1000.75
2018-12-10T04:05:28.012Z,1000.69
2018-12-10T04:06:28.027Z,1000.68
2018-12-10T04:07:28.045Z,1000.79
2018-12-10T04:08:28.059Z,1000.8
2018-12-10T04:09:28.072Z,1000.78
2018-12-10T04:10:28.244Z,1000.82
2018-12-10T04:12:28.120Z,1000.85
2018-12-10T04:13:28.137Z,1000.91
2018-12-10T04:14:28.151Z,1000.89
2018-12-10T04:15:28.169Z,1000.96
2018-12-10T04:16:28.184Z,1000.85
2018-12-10T04:17:28.199Z,1000.92
2018-12-10T04:18:28.214Z,1000.92
2018-12-10T04:19:28.229Z,1000.89
2018-12-10T04:20:28.246Z,1000.96
2018-12-10T04:21:28.263Z,1000.9
2018-12-10T04:22:28.280Z,1000.88
2018-12-10T04:23:28.364Z,1000.99
2018-12-10T04:24:28.307Z,1000.94
2018-12-10T04:25:28.325Z,1001.05
2018-12-10T04:26:28.339Z,1001
2018-12-10T04:28:28.370Z,1001.04
2018-12-10T04:29:28.386Z,1000.94
2018-12-10T04:30:28.401Z,1000.91
2018-12-10T04:31:28.418Z,1001.03
2018-12-10T04:32:28.435Z,1001.02
2018-12-10T04:33:28.449Z,1001
2018-12-10T04:34:28.465Z,1001.04
2018-12-10T04:35:28.479Z,1001.19
2018-12-10T04:36:28.496Z,1001.18
2018-12-10T04:37:28.510Z,1001.24
2018-12-10T04:38:28.525Z,1001.1
2018-12-10T04:39:28.543Z,1001.14
2018-12-10T04:40:28.559Z,1001.07
2018-12-10T04:41:28.573Z,1001.11
2018-12-10T04:42:28.587Z,1001.07
2018-12-10T04:44:28.622Z,1001.16
2018-12-10T04:45:28.636Z,1001.24
2018-12-10T04:46:28.649Z,1001.23
2018-12-10T04:47:28.669Z,1001.24
2018-12-10T04:48:28.781Z,1001.22
2018-12-10T04:49:28.696Z,1001.2
2018-12-10T04:50:28.713Z,1001.39
2018-12-10T04:51:28.727Z,1001.22
2018-12-10T04:52:28.744Z,1001.24
2018-12-10T04:53:28.760Z,1001.25
2018-12-10T04:54:28.775Z,1001.25
2018-12-10T04:55:28.792Z,1001.27
2018-12-10T04:56:28.806Z,1001.38
2018-12-10T04:57:28.825Z,1001.34
2018-12-10T04:59:28.853Z,1001.38
2018-12-10T05:00:28.869Z,1001.33
2018-12-10T05:01:28.890Z,1001.4
2018-12-10T05:02:28.900Z,1001.42
2018-12-10T05:03:28.916Z,1001.4
2018-12-10T05:04:28.931Z,1001.37
2018-12-10T05:05:28.947Z,1001.38
2018-12-10T05:06:28.962Z,1001.41
2018-12-10T05:07:28.976Z,1001.45
2018-12-10T05:08:28.993Z,1001.48
2018-12-10T05:09:29.008Z,1001.58
2018-12-10T05:10:29.026Z,1001.44
2018-12-10T05:11:29.095Z,1001.54
2018-12-10T05:12:29.055Z,1001.59
2018-12-10T05:13:29.071Z,1001.49
2018-12-10T05:14:29.085Z,1001.48
2018-12-10T05:15:29.102Z,1001.55
2018-12-10T05:16:29.217Z,1001.51
2018-12-10T05:17:29.183Z,1001.53
2018-12-10T05:18:29.148Z,1001.55
2018-12-10T05:19:29.163Z,1001.54
2018-12-10T05:20:29.179Z,1001.63
2018-12-10T05:21:29.197Z,1001.65
2018-12-10T05:22:29.210Z,1001.63
2018-12-10T05:23:29.275Z,1001.65
2018-12-10T05:24:29.240Z,1001.67
2018-12-10T05:25:29.256Z,1001.64
2018-12-10T05:26:29.272Z,1001.6
2018-12-10T05:27:29.337Z,1001.65
2018-12-10T05:28:29.303Z,1001.72
2018-12-10T05:29:29.317Z,1001.68
2018-12-10T05:31:29.350Z,1001.7
2018-12-10T05:32:29.365Z,1001.7
2018-12-10T05:33:29.381Z,1001.74
2018-12-10T05:34:29.395Z,1001.77
2018-12-10T05:35:29.412Z,1001.72
2018-12-10T05:36:29.428Z,1001.74
2018-12-10T05:37:29.442Z,1001.71
2018-12-10T05:38:29.458Z,1001.67
2018-12-10T05:39:29.474Z,1001.87
2018-12-10T05:40:29.494Z,1001.73
2018-12-10T05:41:29.503Z,1001.85
2018-12-10T05:42:29.521Z,1001.79
2018-12-10T05:43:29.537Z,1001.78
2018-12-10T05:44:29.552Z,1001.8
2018-12-10T05:45:29.571Z,1001.78
2018-12-10T05:47:29.702Z,1001.83
2018-12-10T05:48:29.613Z,1001.87
2018-12-10T05:49:29.629Z,1002
2018-12-10T05:50:29.645Z,1001.97
2018-12-10T05:51:29.664Z,1002.05
2018-12-10T05:52:29.675Z,1001.99
2018-12-10T05:53:29.691Z,1002.03
2018-12-10T05:54:29.707Z,1002.03
2018-12-10T05:55:29.720Z,1001.9
2018-12-10T05:56:29.737Z,1002.02
2018-12-10T05:57:29.753Z,1002.07
2018-12-10T05:58:29.768Z,1002.05
2018-12-10T05:59:29.782Z,1001.97
2018-12-10T06:00:29.798Z,1002.01
2018-12-10T06:01:29.815Z,1002.09
2018-12-10T06:03:29.845Z,1002.08
2018-12-10T06:04:29.861Z,1002.09
2018-12-10T06:05:29.875Z,1002.07
2018-12-10T06:06:29.998Z,1002.17
2018-12-10T06:07:29.908Z,1002.17
2018-12-10T06:08:29.929Z,1002.16
2018-12-10T06:09:29.938Z,1002.17
2018-12-10T06:10:29.951Z,1002.03
2018-12-10T06:11:29.969Z,1002.16
2018-12-10T06:12:29.982Z,1002.16
2018-12-10T06:13:29.997Z,1002.19
2018-12-10T06:14:30.014Z,1002.24
2018-12-10T06:15:30.030Z,1002.2
2018-12-10T06:16:30.046Z,1002.24
2018-12-10T06:17:30.059Z,1002.17
2018-12-10T06:19:30.090Z,1002.21
2018-12-10T06:20:30.107Z,1002.26
2018-12-10T06:21:30.121Z,1002.36
2018-12-10T06:22:30.245Z,1002.4
2018-12-10T06:23:30.252Z,1002.38
2018-12-10T06:24:30.167Z,1002.4
2018-12-10T06:25:30.185Z,1002.35
2018-12-10T06:26:30.201Z,1002.4
2018-12-10T06:27:30.214Z,1002.39
2018-12-10T06:28:30.279Z,1002.43
2018-12-10T06:29:30.246Z,1002.55
2018-12-10T06:30:30.261Z,1002.44
2018-12-10T06:31:30.277Z,1002.5
2018-12-10T06:32:30.292Z,1002.47
2018-12-10T06:34:30.324Z,1002.61
2018-12-10T06:35:30.338Z,1002.61
2018-12-10T06:36:30.355Z,1002.66
2018-12-10T06:37:37.336Z,1002.68
2018-12-10T06:38:30.385Z,1002.64
2018-12-10T06:39:30.451Z,1002.62
2018-12-10T06:40:30.415Z,1002.66
2018-12-10T06:41:30.431Z,1002.72
2018-12-10T06:42:30.446Z,1002.82
2018-12-10T06:43:30.461Z,1002.72
2018-12-10T06:44:30.476Z,1002.83
2018-12-10T06:45:30.593Z,1002.95
2018-12-10T06:46:30.509Z,1002.81
2018-12-10T06:47:30.522Z,1003.01
2018-12-10T06:48:30.538Z,1002.87
2018-12-10T06:49:30.554Z,1002.9
2018-12-10T06:50:30.568Z,1002.92
2018-12-10T06:51:30.585Z,1002.84
2018-12-10T06:52:30.600Z,1002.85
2018-12-10T06:53:30.617Z,1002.87
2018-12-10T06:54:30.631Z,1002.96
2018-12-10T06:55:30.647Z,1003.03
2018-12-10T06:56:30.661Z,1002.98
2018-12-10T06:57:30.677Z,1003.12
2018-12-10T06:58:30.696Z,1003.1
2018-12-10T06:59:30.710Z,1003.09
2018-12-10T07:00:30.724Z,1003.04
2018-12-10T07:01:30.737Z,1003.06
2018-12-10T07:02:30.754Z,1003.16
2018-12-10T07:03:30.775Z,1003.11
2018-12-10T07:04:30.784Z,1003.13
2018-12-10T07:06:30.814Z,1003.11
2018-12-10T07:07:30.837Z,1003.11
2018-12-10T07:08:30.845Z,1003.14
2018-12-10T07:09:30.860Z,1003.19
2018-12-10T07:10:30.876Z,1003.13
2018-12-10T07:11:30.894Z,1003.17
2018-12-10T07:12:30.907Z,1003.3
2018-12-10T07:13:30.923Z,1003.1
2018-12-10T07:14:30.937Z,1003.13
2018-12-10T07:15:30.953Z,1003.19
2018-12-10T07:16:30.968Z,1003.15
2018-12-10T07:17:30.983Z,1003.1
2018-12-10T07:18:30.999Z,1003.24
2018-12-10T07:19:31.013Z,1003.17
2018-12-10T07:20:31.029Z,1003.14
2018-12-10T07:22:31.060Z,1003.21
2018-12-10T07:23:31.174Z,1003.2
2018-12-10T07:24:31.091Z,1003.25
2018-12-10T07:25:31.107Z,1003.12
2018-12-10T07:26:31.121Z,1003.17
2018-12-10T07:27:31.136Z,1003.28
2018-12-10T07:28:31.152Z,1003.32
2018-12-10T07:29:31.170Z,1003.27
2018-12-10T07:30:31.182Z,1003.34
2018-12-10T07:31:31.197Z,1003.38
2018-12-10T07:32:31.215Z,1003.33
2018-12-10T07:33:31.228Z,1003.37
2018-12-10T07:34:31.244Z,1003.33
2018-12-10T07:35:31.260Z,1003.28
2018-12-10T07:36:31.275Z,1003.31
2018-12-10T07:38:31.305Z,1003.3
2018-12-10T07:39:31.331Z,1003.42
2018-12-10T07:40:31.338Z,1003.33
2018-12-10T07:41:31.352Z,1003.42
2018-12-10T07:42:31.367Z,1003.5
2018-12-10T07:43:31.383Z,1003.36
2018-12-10T07:44:31.396Z,1003.37
2018-12-10T07:45:31.413Z,1003.49
2018-12-10T07:46:31.426Z,1003.5
2018-12-10T07:47:31.451Z,1003.42
2018-12-10T07:48:31.458Z,1003.43
2018-12-10T07:49:31.473Z,1003.45
2018-12-10T07:50:31.489Z,1003.47
2018-12-10T07:51:31.505Z,1003.44
2018-12-10T07:52:31.520Z,1003.5
2018-12-10T07:54:31.551Z,1003.52
2018-12-10T07:55:31.566Z,1003.42
2018-12-10T07:56:31.581Z,1003.42
2018-12-10T07:57:31.595Z,1003.47
2018-12-10T07:58:31.611Z,1003.49
2018-12-10T07:59:31.627Z,1003.51
2018-12-10T08:00:31.641Z,1003.5
2018-12-10T08:01:31.658Z,1003.44
2018-12-10T08:02:31.677Z,1003.43
2018-12-10T08:03:31.687Z,1003.46
2018-12-10T08:04:31.703Z,1003.45
2018-12-10T08:05:31.719Z,1003.46
2018-12-10T08:06:31.735Z,1003.53
2018-12-10T08:07:31.750Z,1003.48
2018-12-10T08:09:31.781Z,1003.53
2018-12-10T08:10:31.796Z,1003.53
2018-12-10T08:11:31.810Z,1003.62
2018-12-10T08:12:31.827Z,1003.51
2018-12-10T08:13:31.843Z,1003.44
2018-12-10T08:14:31.859Z,1003.66
2018-12-10T08:15:31.874Z,1003.68
2018-12-10T08:16:31.938Z,1003.58
2018-12-10T08:17:31.902Z,1003.63
2018-12-10T08:18:31.918Z,1003.74
2018-12-10T08:19:31.935Z,1003.8
2018-12-10T08:20:31.950Z,1003.71
2018-12-10T08:21:31.964Z,1003.63
2018-12-10T08:22:31.981Z,1003.74
2018-12-10T08:23:32.085Z,1003.71
2018-12-10T08:24:32.012Z,1003.73
2018-12-10T08:25:32.027Z,1003.68
2018-12-10T08:26:32.040Z,1003.75
2018-12-10T08:27:32.056Z,1003.78
2018-12-10T08:28:32.121Z,1003.75
2018-12-10T08:29:32.088Z,1003.77
2018-12-10T08:30:32.104Z,1003.87
2018-12-10T08:31:32.193Z,1003.77
2018-12-10T08:32:32.134Z,1003.85
2018-12-10T08:33:32.150Z,1003.74
2018-12-10T08:34:32.165Z,1003.92
2018-12-10T08:35:40.680Z,1003.61
2018-12-10T08:36:32.195Z,1003.73
2018-12-10T08:37:32.211Z,1003.66
2018-12-10T08:38:32.227Z,1003.82
2018-12-10T08:39:32.242Z,1003.7
2018-12-10T08:41:32.273Z,1003.75
2018-12-10T08:42:32.289Z,1003.72
2018-12-10T08:43:32.304Z,1003.81
2018-12-10T08:44:32.322Z,1003.76
2018-12-10T08:45:32.335Z,1003.72
2018-12-10T08:46:32.351Z,1003.72
2018-12-10T08:47:32.370Z,1003.66
2018-12-10T08:48:32.380Z,1003.78
2018-12-10T08:49:32.395Z,1003.76
2018-12-10T08:50:32.411Z,1003.77
2018-12-10T08:51:32.428Z,1003.78
2018-12-10T08:52:32.493Z,1003.8
2018-12-10T08:53:32.459Z,1003.97
2018-12-10T08:54:32.473Z,1003.67
2018-12-10T08:55:32.488Z,1003.77
2018-12-10T08:57:32.521Z,1003.84
2018-12-10T08:58:32.535Z,1003.89
2018-12-10T08:59:32.552Z,1003.94
2018-12-10T09:00:32.568Z,1003.92
2018-12-10T09:01:32.581Z,1004.05
2018-12-10T09:02:32.597Z,1004.29
2018-12-10T09:03:32.615Z,1004.04
2018-12-10T09:04:32.631Z,1004.07
2018-12-10T09:05:32.645Z,1004.07
2018-12-10T09:06:32.661Z,1004.02
2018-12-10T09:07:32.727Z,1004.04
2018-12-10T09:08:32.692Z,1004.07
2018-12-10T09:09:32.707Z,1004.03
2018-12-10T09:10:34.610Z,1004.05
2018-12-10T09:11:32.739Z,1004.15
2018-12-10T09:13:32.770Z,1004.16
2018-12-10T09:14:32.788Z,1004.16
2018-12-10T09:15:32.803Z,1004.15
2018-12-10T09:16:32.818Z,1004.13
2018-12-10T09:17:32.833Z,1004.18
2018-12-10T09:18:32.850Z,1004.12
2018-12-10T09:19:32.865Z,1004.16
2018-12-10T09:20:32.880Z,1004.28
2018-12-10T09:21:32.897Z,1004.18
2018-12-10T09:22:32.912Z,1004.23
2018-12-10T09:23:32.926Z,1004.22
2018-12-10T09:24:32.943Z,1004.15
2018-12-10T09:25:32.959Z,1004.24
2018-12-10T09:26:32.975Z,1004.21
2018-12-10T09:27:32.989Z,1004.19
2018-12-10T09:29:33.073Z,1004.24
2018-12-10T09:30:33.038Z,1004.18
2018-12-10T09:31:33.053Z,1004.27
2018-12-10T09:32:33.070Z,1004.28
2018-12-10T09:33:33.086Z,1004.35
2018-12-10T09:34:33.101Z,1004.3
2018-12-10T09:35:33.117Z,1004.39
2018-12-10T09:36:33.133Z,1004.45
2018-12-10T09:37:33.150Z,1004.29
2018-12-10T09:38:33.163Z,1004.33
2018-12-10T09:39:33.180Z,1004.34
2018-12-10T09:40:33.197Z,1004.31
2018-12-10T09:41:33.216Z,1004.21
2018-12-10T09:42:33.278Z,1004.32
2018-12-10T09:44:33.261Z,1004.26
2018-12-10T09:45:33.275Z,1004.26
2018-12-10T09:46:33.292Z,1004.33
2018-12-10T09:47:33.308Z,1004.33
2018-12-10T09:48:33.323Z,1004.32
2018-12-10T09:49:33.340Z,1004.29
2018-12-10T09:50:33.356Z,1004.29
2018-12-10T09:51:33.384Z,1004.33
2018-12-10T09:52:33.386Z,1004.3
2018-12-10T09:53:33.403Z,1004.36
2018-12-10T09:54:33.419Z,1004.38
2018-12-10T09:55:33.435Z,1004.4
2018-12-10T09:56:33.451Z,1004.38
2018-12-10T09:57:33.465Z,1004.45
2018-12-10T09:58:33.482Z,1004.45
2018-12-10T09:59:33.500Z,1004.54
2018-12-10T10:00:33.515Z,1004.5
2018-12-10T10:01:33.531Z,1004.36
2018-12-10T10:02:33.646Z,1004.34
2018-12-10T10:03:33.561Z,1004.73
2018-12-10T10:04:33.578Z,1004.57
2018-12-10T10:05:33.597Z,1004.42
2018-12-10T10:06:33.611Z,1004.31
2018-12-10T10:07:33.629Z,1004.42
2018-12-10T10:08:33.642Z,1004.38
2018-12-10T10:09:33.657Z,1004.46
2018-12-10T10:10:33.674Z,1004.52
2018-12-10T10:11:33.690Z,1004.45
2018-12-10T10:12:33.706Z,1004.42
2018-12-10T10:13:33.722Z,1004.71
2018-12-10T10:14:33.739Z,1004.61
2018-12-10T10:16:33.769Z,1004.64
2018-12-10T10:17:33.785Z,1004.54
2018-12-10T10:18:33.800Z,1004.56
2018-12-10T10:19:33.817Z,1004.63
2018-12-10T10:20:33.833Z,1004.35
2018-12-10T10:21:33.849Z,1004.51
2018-12-10T10:22:33.866Z,1004.51
2018-12-10T10:23:33.881Z,1004.55
2018-12-10T10:24:33.898Z,1004.55
2018-12-10T10:25:33.912Z,1004.63
2018-12-10T10:26:33.931Z,1004.68
2018-12-10T10:27:33.947Z,1004.64
2018-12-10T10:28:33.963Z,1004.59
2018-12-10T10:29:33.976Z,1004.64
2018-12-10T10:30:34.044Z,1004.65
2018-12-10T10:32:34.171Z,1004.56
2018-12-10T10:33:34.043Z,1004.64
2018-12-10T10:34:34.109Z,1004.71
2018-12-10T10:35:34.075Z,1004.65
2018-12-10T10:36:34.089Z,1004.58
2018-12-10T10:37:34.111Z,1004.64
2018-12-10T10:38:34.122Z,1004.69
2018-12-10T10:39:34.138Z,1004.58
2018-12-10T10:40:34.155Z,1004.62
2018-12-10T10:41:34.174Z,1004.58
2018-12-10T10:42:34.188Z,1004.63
2018-12-10T10:43:34.204Z,1004.59
2018-12-10T10:44:34.270Z,1004.6
2018-12-10T10:45:34.811Z,1004.52
2018-12-10T10:46:34.317Z,1004.53
2018-12-10T10:48:34.282Z,1004.59
2018-12-10T10:49:34.299Z,1004.52
2018-12-10T10:50:34.316Z,1004.54
2018-12-10T10:51:34.332Z,1004.55
2018-12-10T10:52:34.349Z,1004.55
2018-12-10T10:53:34.365Z,1004.41
2018-12-10T10:54:34.381Z,1004.56
2018-12-10T10:55:34.395Z,1004.53
2018-12-10T10:56:34.412Z,1004.48
2018-12-10T10:57:34.430Z,1004.31
2018-12-10T10:58:34.445Z,1004.52
2018-12-10T10:59:34.460Z,1004.53
2018-12-10T11:00:34.526Z,1004.52
2018-12-10T11:01:34.535Z,1004.47
2018-12-10T11:02:34.509Z,1004.51
2018-12-10T11:04:37.472Z,1004.61
2018-12-10T11:05:34.558Z,1004.49
2018-12-10T11:06:34.574Z,1004.62
2018-12-10T11:07:34.591Z,1004.55
2018-12-10T11:08:34.608Z,1004.59
2018-12-10T11:09:34.623Z,1004.62
2018-12-10T11:10:34.640Z,1004.68
2018-12-10T11:11:34.655Z,1004.75
2018-12-10T11:12:34.673Z,1004.64
2018-12-10T11:13:34.687Z,1004.62
2018-12-10T11:14:34.705Z,1004.62
2018-12-10T11:15:34.721Z,1004.68
2018-12-10T11:16:34.738Z,1004.64
2018-12-10T11:17:34.754Z,1004.56
2018-12-10T11:19:34.786Z,1004.66
2018-12-10T11:20:34.801Z,1004.53
2018-12-10T11:21:34.819Z,1004.69
2018-12-10T11:22:34.835Z,1004.62
2018-12-10T11:23:34.851Z,1004.73
2018-12-10T11:24:34.867Z,1004.57
2018-12-10T11:25:34.882Z,1004.56
2018-12-10T11:26:34.899Z,1004.59
2018-12-10T11:27:34.914Z,1004.53
2018-12-10T11:28:34.930Z,1004.6
2018-12-10T11:29:34.947Z,1004.58
2018-12-10T11:30:35.014Z,1004.62
2018-12-10T11:31:34.980Z,1004.65
2018-12-10T11:32:34.995Z,1004.58
2018-12-10T11:33:35.012Z,1004.71
2018-12-10T11:34:35.028Z,1004.59
2018-12-10T11:35:35.044Z,1004.67
2018-12-10T11:36:35.061Z,1004.65
2018-12-10T11:37:35.076Z,1004.56
2018-12-10T11:38:35.093Z,1004.57
2018-12-10T11:39:35.109Z,1004.66
2018-12-10T11:40:35.124Z,1004.7
2018-12-10T11:41:35.141Z,1004.65
2018-12-10T11:42:35.158Z,1004.7
2018-12-10T11:43:35.172Z,1004.49
2018-12-10T11:44:35.189Z,1004.74
2018-12-10T11:45:35.205Z,1004.7
2018-12-10T11:46:35.223Z,1004.61
2018-12-10T11:47:35.236Z,1004.66
2018-12-10T11:48:35.253Z,1004.63
2018-12-10T11:49:35.268Z,1004.59
2018-12-10T11:51:35.300Z,1004.58
2018-12-10T11:52:35.321Z,1004.69
2018-12-10T11:53:35.333Z,1004.74
2018-12-10T11:54:35.349Z,1004.68
2018-12-10T11:55:35.364Z,1004.73
2018-12-10T11:56:35.384Z,1004.69
2018-12-10T11:57:35.396Z,1004.7
2018-12-10T11:58:35.413Z,1004.69
2018-12-10T11:59:35.428Z,1004.68
2018-12-10T12:00:35.444Z,1004.64
2018-12-10T12:01:35.460Z,1004.64
2018-12-10T12:02:35.475Z,1004.73
2018-12-10T12:03:35.493Z,1004.75
2018-12-10T12:04:35.507Z,1004.64
2018-12-10T12:05:35.525Z,1004.69
2018-12-10T12:07:35.555Z,1004.66
2018-12-10T12:08:35.572Z,1004.6
2018-12-10T12:09:35.586Z,1004.7
2018-12-10T12:10:35.603Z,1004.67
2018-12-10T12:11:35.618Z,1004.6
2018-12-10T12:12:35.634Z,1004.57
2018-12-10T12:13:35.652Z,1004.63
2018-12-10T12:14:35.667Z,1004.64
2018-12-10T12:15:35.681Z,1004.76
2018-12-10T12:16:35.698Z,1004.79
2018-12-10T12:17:35.715Z,1004.66
2018-12-10T12:18:35.781Z,1004.61
2018-12-10T12:19:35.746Z,1004.63
2018-12-10T12:20:35.761Z,1004.6
2018-12-10T12:21:35.828Z,1004.64
2018-12-10T12:23:35.811Z,1004.65
2018-12-10T12:24:35.825Z,1004.65
2018-12-10T12:25:35.842Z,1004.68
2018-12-10T12:26:35.856Z,1004.6
2018-12-10T12:27:35.872Z,1004.61
2018-12-10T12:28:35.890Z,1004.58
2018-12-10T12:29:35.904Z,1004.63
2018-12-10T12:30:35.918Z,1004.66
2018-12-10T12:31:35.935Z,1004.61
2018-12-10T12:32:35.951Z,1004.56
2018-12-10T12:33:36.062Z,1004.51
2018-12-10T12:34:35.982Z,1004.56
2018-12-10T12:35:35.998Z,1004.54
2018-12-10T12:36:36.038Z,1004.61
2018-12-10T12:37:36.028Z,1004.5
2018-12-10T12:39:36.061Z,1004.54
2018-12-10T12:40:36.077Z,1004.55
2018-12-10T12:41:36.092Z,1004.56
2018-12-10T12:42:36.109Z,1004.55
2018-12-10T12:43:36.123Z,1004.52
2018-12-10T12:44:36.138Z,1004.52
2018-12-10T12:45:36.154Z,1004.56
2018-12-10T12:46:36.171Z,1004.49
2018-12-10T12:47:36.186Z,1004.49
2018-12-10T12:48:36.202Z,1004.48
2018-12-10T12:49:36.218Z,1004.65
2018-12-10T12:50:36.233Z,1004.54
2018-12-10T12:51:37.244Z,1004.48
2018-12-10T12:52:36.266Z,1004.52
2018-12-10T12:54:36.291Z,1004.51